Bentonville, AR (72712)

5:08 PM CDT on August 31, 2015 (GMT -0500)
KARBENTO2 | | Change Station
CLOSE
Current Station
Personal Weather Station
Location: Bentonville, AR
Elevation: 1289 ft
Nearby Weather Stations

Elev 1289 ft 36.36 °N, 94.20 °W | Updated 14 seconds ago

Clear
Clear
88.7 °F
Feels Like 92 °F
N
0.0
Wind Variable Wind from SSE
Gusts 8.3 mph

Today
High -- | Low -- °F
--% Chance of Precip.
Yesterday
High -- | Low -- °F
Precip. -- in
6:47 AM 7:46 PM
Waning Gibbous, 93% visible
Pressure 30.04 in
Visibility 10.0 miles
Clouds Clear
Heat Index 92 °F
Dew Point 67 °F
Humidity 49%
Rainfall 0.00 in
Snow Depth Not available.
UV 4 out of 12
Pollen 10.00 out of 12
Air Quality Not available.
Flu Activity Not available.
METAR KVBT 312155Z AUTO 24008KT 10SM CLR 31/18 A3004 RMK AO1
Pressure 30.04 in
Visibility 10.0 miles
Clouds Clear
Heat Index 92 °F
Dew Point 67 °F
Humidity 49%
Rainfall 0.00 in
Snow Depth Not available.
UV 4 out of 12
Pollen 10.00 out of 12
Air Quality Not available.
Flu Activity Not available.
METAR KVBT 312155Z AUTO 24008KT 10SM CLR 31/18 A3004 RMK AO1
Nowcast | as of 4:24 PM CDT on August 31, 2015

At 4:24 PM...National Weather Service Doppler radars detected a few isolated showers and thunderstorms developing over portions of southeast Oklahoma and western Arkansas...mainly within Carroll...Madison...Le Flore...and Latimer counties. All this activity was mainly stationary...with a slight movement toward the north. Through 6:00 PM...isolated showers and thunderstorms will remain possible...mainly across southeast Oklahoma and western Arkansas. Light to moderate rainfall can be expected from most of the activity...with less than a tenth of an inch per hour. Any stronger thunderstorms could produce brief heavy rainfall...along with small hail...gusty winds...and cloud to ground lightning. Any stronger storms that remain over any location for an extended period of time could also cause localized flooding.

×

10-Day Weather Forecast

×

Almanac

Astronomy

Aug. 31, 2015 Rise Set
Actual Time
Civil Twilight
Nautical Twilight
Astronomical Twilight
Moon
Length of Visible Light
Length of Day
Tomorrow will be .
, % of the Moon is Illuminated

Today's Extremes

State Highs State Lows

Community

WunderPhotos

Upload Photos

1,851,389 photos uploaded!

WunderBlogs® & News

Nearby

Air Quality

  Air Quality AQ Index Pollutant
Not available.

Snow Depth

Station Depth Elevation

Earthquake Activity

City Distance Mag. Time & Date
Minimum magnitude displayed is 2.5.

Coastal Water Temperatures

Place Temperature

Stations

Nearby Weather Stations

Station Location Temp. Windchill Dew Point Humidity Wind Precip. Elev Updated Type